Cowen, WV (26206)

8:47 PM EST on December 28, 2014 (GMT -0500)
Webster Springs | Change Station
CLOSE
Current Station
Personal Weather Station
Location: Webster Springs, WV
Elevation: 1526 ft
Nearby Weather Stations

Elev 1526 ft 38.48 °N, 80.42 °W | Updated 13 seconds ago

Rain
Rain
41.2 °F
Feels Like 41 °F
N
0.0
Wind Variable Wind from ENE
Gusts 0.0 mph

Today
High -- | Low -- °F
--% Chance of Precip.
Yesterday
High -- | Low -- °F
Precip. -- in
7:38 AM 5:09 PM
First Quarter, 53% visible
Pressure 30.08 in
Visibility 10.0 miles
Clouds Scattered Clouds 800 ft
Overcast 1200 ft
Windchill 41 °F
Dew Point 40 °F
Humidity 94%
Rainfall 0.22 in
Snow Depth Not available.
UV 0 out of 12
Pollen .10 out of 12
Air Quality Not available.
Flu Activity Not available.
METAR KLWB 290135Z AUTO 29004KT 10SM SCT008 OVC012 08/06 A3008 RMK AO2 T00750055

More Conditions Fewer Conditions

Pressure 30.08 in
Visibility 10.0 miles
Clouds Scattered Clouds 800 ft
Overcast 1200 ft
Windchill 41 °F
Dew Point 40 °F
Humidity 94%
Rainfall 0.22 in
Snow Depth Not available.
UV 0 out of 12
Pollen .10 out of 12
Air Quality Not available.
Flu Activity Not available.
METAR KLWB 290135Z AUTO 29004KT 10SM SCT008 OVC012 08/06 A3008 RMK AO2 T00750055

More Conditions Fewer Conditions

10-Day Weather Forecast

Almanac

Astronomy

Dec. 28, 2014 Rise Set
Actual Time
Civil Twilight
Nautical Twilight
Astronomical Twilight
Moon
Length of Visible Light
Length of Day
Tomorrow will be .
, % of the Moon is Illuminated

Today's Extremes

State Highs State Lows

Community

WunderPhotos

Upload Photos

1,781,489 photos uploaded!

WunderBlogs® & News

Nearby

Air Quality

  Air Quality AQ Index Pollutant
Not available.

Snow Depth

Station Depth Elevation

Earthquake Activity

City Distance Mag. Time & Date
Minimum magnitude displayed is 2.5.

Coastal Water Temperatures

Place Temperature

Nearby Weather Stations